Robyn J — WTQ4065 — position and weather

sailwx.info

Track history (hours):
 
Tides and Currents Weather Stations Pressure Air Temp Water Temp Dewpoint Dewpoint Depression Visibility Wind Speed Wind Dir Waves Ship Positions

Robyn J

Owner: JANKOVICH, TOM J, SAN PEDRO, CA. More information available from US FCC via Universal Licensing System and Coast Guard Vessel Documentation Center.

Last reported at 2018-Feb-18 14:58 UTC. Time now 2018-Feb-19 11:58 UTC.
Position N 32°42' W 117°19'.

Length 36 m; draft 3 m.

Type: Tow > 200 m length. MMSI: 367006770.

Date/timePositionNaut miles runAvg speedWind from/ knotsBaromVisibWave heightAir tempDewpointWater temp
2018-Feb-18 14:58N 32°42' W 117°19'2 5.4
2018-Feb-18 14:30N 32°44' W 117°21'3 5.5
2018-Feb-18 14:00N 32°46' W 117°23'3 5.5
2018-Feb-18 13:30N 32°48' W 117°25'3 5.4
2018-Feb-18 13:00N 32°50' W 117°27'3 5.3
2018-Feb-18 12:30N 32°52' W 117°29'3 5.4
2018-Feb-18 12:00N 32°54' W 117°31'3 5.4
2018-Feb-18 11:29N 32°56' W 117°34'3 5.5
2018-Feb-18 11:00N 32°58' W 117°36'3 5.6
2018-Feb-18 10:30N 33°00' W 117°38'3 5.7
2018-Feb-18 10:00N 33°03' W 117°40'3 5.6
2018-Feb-18 09:30N 33°05' W 117°42'3 5.6
2018-Feb-18 09:00N 33°07' W 117°43'3 5.6
2018-Feb-18 08:30N 33°09' W 117°45'3 5.7
2018-Feb-18 07:59N 33°12' W 117°47'3 5.6
2018-Feb-18 07:30N 33°14' W 117°49'9 5.6
2018-Feb-18 05:50N 33°22' W 117°56'2 5.9
2018-Feb-18 05:29N 33°23' W 117°57'3 5.8
2018-Feb-18 04:56N 33°26' W 117°60'3 5.9
2018-Feb-18 04:30N 33°28' W 118°01'3 6.1
2018-Feb-18 04:00N 33°31' W 118°03'3 5.9
2018-Feb-18 03:30N 33°33' W 118°05'4 6.0
2018-Feb-18 02:47N 33°37' W 118°08'3 5.8
2018-Feb-18 02:12N 33°40' W 118°09'1 6.0
2018-Feb-18 01:59N 33°41' W 118°10'3 5.7
2018-Feb-18 01:30N 33°44' W 118°11'1 2.4
2018-Feb-18 01:00N 33°44' W 118°12'1 1.3
2018-Feb-18 00:26N 33°45' W 118°12'0 0.0
2018-Feb-18 00:00N 33°45' W 118°12'0 0.0
2018-Feb-17 23:30N 33°45' W 118°12'0 0.0
2018-Feb-17 23:00N 33°45' W 118°12'0 0.0
2018-Feb-17 22:30N 33°45' W 118°12'0 0.0
2018-Feb-17 22:00N 33°45' W 118°12'0 0.0
2018-Feb-17 21:30N 33°45' W 118°12'1 2.8
2018-Feb-17 21:00N 33°44' W 118°12'0 0.2
2018-Feb-17 20:30N 33°44' W 118°12'0 0.9
2018-Feb-17 20:00N 33°43' W 118°11'3 6.3
2018-Feb-17 19:30N 33°41' W 118°10'4 7.1
2018-Feb-17 19:00N 33°37' W 118°08'3 6.9
2018-Feb-17 18:30N 33°34' W 118°06'4 7.0
2018-Feb-17 18:00N 33°32' W 118°03'5 6.9
2018-Feb-17 17:17N 33°27' W 117°60'3 7.0
2018-Feb-17 16:47N 33°25' W 117°57'2 7.0
2018-Feb-17 16:29N 33°23' W 117°56'10 7.0
2018-Feb-17 15:03N 33°14' W 117°50'0 7.1
2018-Feb-17 14:59N 33°14' W 117°49'3 7.0
2018-Feb-17 14:30N 33°11' W 117°47'4 7.1
2018-Feb-17 14:00N 33°08' W 117°44'4 7.2
2018-Feb-17 13:30N 33°06' W 117°42'4 7.3
2018-Feb-17 13:00N 33°03' W 117°39'4 7.5
2018-Feb-17 12:30N 33°00' W 117°36'4 7.7
2018-Feb-17 12:00N 32°57' W 117°33'4 7.8
2018-Feb-17 11:30N 32°54' W 117°30'4 7.6
2018-Feb-17 11:00N 32°51' W 117°27'4 7.4
2018-Feb-17 10:30N 32°48' W 117°25'4 7.3
2018-Feb-17 09:58N 32°45' W 117°22'3 0.3
2018-Feb-16 22:36N 32°42' W 117°20'0 5.6
2018-Feb-16 22:30N 32°43' W 117°20'3 5.3
2018-Feb-16 22:00N 32°45' W 117°22'3 5.3
2018-Feb-16 21:30N 32°47' W 117°24'3 5.2
2018-Feb-16 21:00N 32°49' W 117°26'3 5.1
2018-Feb-16 20:30N 32°51' W 117°28'2 4.5
2018-Feb-16 20:00N 32°53' W 117°29'3 5.3
2018-Feb-16 19:30N 32°55' W 117°31'3 5.2
2018-Feb-16 19:00N 32°57' W 117°33'3 5.1
2018-Feb-16 18:30N 32°59' W 117°35'3 5.1
2018-Feb-16 18:00N 33°01' W 117°36'2 4.9
2018-Feb-16 17:30N 33°03' W 117°38'2 4.9
2018-Feb-16 17:00N 33°05' W 117°39'3 5.2
2018-Feb-16 16:30N 33°07' W 117°41'3 5.4
2018-Feb-16 16:00N 33°10' W 117°43'3 5.4
2018-Feb-16 15:30N 33°12' W 117°45'38 5.7
2018-Feb-16 08:46N 33°42' W 118°14'1 5.4
2018-Feb-16 08:30N 33°43' W 118°15'2 3.2
2018-Feb-16 08:00N 33°44' W 118°16'2 4.7
2018-Feb-16 07:30N 33°46' W 118°16'0 0.3
2018-Feb-16 07:00N 33°46' W 118°16'0 0.0
2018-Feb-16 06:30N 33°46' W 118°16'1 2.2
2018-Feb-16 06:00N 33°45' W 118°16'3 5.2
2018-Feb-16 05:28N 33°43' W 118°14'3 7.0
2018-Feb-16 05:00N 33°44' W 118°10'1 1.9
2018-Feb-16 04:27N 33°44' W 118°11'3 6.2
2018-Feb-16 04:00N 33°43' W 118°14'1 2.7
2018-Feb-16 03:28N 33°43' W 118°16'3 7.1
2018-Feb-16 03:00N 33°44' W 118°12'0 0.7
2018-Feb-16 02:30N 33°45' W 118°13'0 0.0
2018-Feb-16 01:48N 33°45' W 118°13'0 0.0
2018-Feb-16 01:30N 33°45' W 118°13'0 0.0
2018-Feb-16 01:00N 33°45' W 118°13'0 0.0
2018-Feb-16 00:30N 33°45' W 118°13'0 0.0
2018-Feb-16 00:00N 33°45' W 118°13'0 0.0
2018-Feb-15 23:30N 33°45' W 118°13'2 3.8
2018-Feb-15 23:00N 33°43' W 118°14'2 4.4
2018-Feb-15 22:30N 33°44' W 118°17'0 0.0
2018-Feb-15 22:00N 33°44' W 118°17'0 0.9
2018-Feb-15 21:30N 33°44' W 118°17'2 3.8
2018-Feb-15 21:00N 33°46' W 118°16'2 3.4
2018-Feb-15 20:30N 33°44' W 118°17'1 1.4
2018-Feb-15 20:00N 33°44' W 118°16'0 0.0
2018-Feb-15 19:30N 33°44' W 118°16'0 0.0
2018-Feb-15 19:00N 33°44' W 118°16'0 0.1
2018-Feb-15 18:30N 33°44' W 118°17'0 0.0
2018-Feb-15 18:00N 33°44' W 118°17'0 0.0
2018-Feb-15 17:30N 33°44' W 118°17'0 0.0
2018-Feb-15 17:00N 33°44' W 118°17'0 0.0
2018-Feb-15 16:30N 33°44' W 118°17'0 0.0
2018-Feb-15 16:00N 33°44' W 118°17'0 0.0
2018-Feb-15 15:30N 33°44' W 118°17'0 0.0
2018-Feb-15 15:00N 33°44' W 118°17'0 0.0
2018-Feb-15 14:30N 33°44' W 118°17'0 0.0
2018-Feb-15 14:00N 33°44' W 118°17'0 0.0
2018-Feb-15 13:30N 33°44' W 118°17'0 0.0
2018-Feb-15 13:00N 33°44' W 118°17'0 0.0
2018-Feb-15 12:30N 33°44' W 118°17'0 0.0
2018-Feb-15 12:00N 33°44' W 118°17'0 0.0
2018-Feb-15 11:30N 33°44' W 118°17'0 0.0
2018-Feb-15 11:00N 33°44' W 118°17'0 0.0
2018-Feb-15 10:30N 33°44' W 118°17'0 0.0
2018-Feb-15 10:00N 33°44' W 118°17'0 0.0
2018-Feb-15 09:30N 33°44' W 118°17'0 0.0
2018-Feb-15 09:00N 33°44' W 118°17'0 0.0
2018-Feb-15 08:30N 33°44' W 118°17'0 0.0
2018-Feb-15 08:00N 33°44' W 118°17'0 0.0
2018-Feb-15 07:30N 33°44' W 118°17'0 0.0
2018-Feb-15 07:00N 33°44' W 118°17'0 0.0
2018-Feb-15 06:30N 33°44' W 118°17'0 0.0
2018-Feb-15 06:00N 33°44' W 118°17'0 0.0
2018-Feb-15 05:30N 33°44' W 118°17'0 0.0
2018-Feb-15 05:00N 33°44' W 118°17'0 0.0
2018-Feb-15 04:30N 33°44' W 118°17'0 0.0
2018-Feb-15 04:00N 33°44' W 118°17'0 0.0
2018-Feb-15 03:30N 33°44' W 118°17'0 0.0
2018-Feb-15 03:00N 33°44' W 118°17'0 0.0
2018-Feb-15 02:30N 33°44' W 118°17'0 0.0
2018-Feb-15 02:00N 33°44' W 118°17'0 0.0
2018-Feb-15 01:30N 33°44' W 118°17'0 0.0
2018-Feb-15 01:00N 33°44' W 118°17'0 0.0
2018-Feb-15 00:30N 33°44' W 118°17'0 0.0
2018-Feb-15 00:00N 33°44' W 118°17'0 0.0
2018-Feb-14 23:30N 33°44' W 118°17'0 0.0
2018-Feb-14 23:00N 33°44' W 118°17'0 0.0
2018-Feb-14 22:30N 33°44' W 118°17'0 0.0
2018-Feb-14 22:00N 33°44' W 118°17'0 0.0
2018-Feb-14 21:30N 33°44' W 118°17'0 0.0
2018-Feb-14 21:00N 33°44' W 118°17'0 0.1
2018-Feb-14 20:30N 33°44' W 118°17'2 3.5
2018-Feb-14 20:00N 33°45' W 118°17'0 0.7
2018-Feb-14 19:30N 33°46' W 118°16'0 0.0
2018-Feb-14 19:00N 33°46' W 118°16'0 0.0
2018-Feb-14 18:30N 33°46' W 118°16'0 0.0
2018-Feb-14 18:00N 33°46' W 118°16'0 0.0
2018-Feb-14 17:30N 33°46' W 118°16'0 0.0
2018-Feb-14 17:00N 33°46' W 118°16'0 0.0
2018-Feb-14 16:30N 33°46' W 118°16'0 0.0
2018-Feb-14 16:00N 33°46' W 118°16'2 4.0
2018-Feb-14 15:30N 33°44' W 118°16'0 0.1
2018-Feb-14 15:00N 33°44' W 118°17'0 0.0
2018-Feb-14 14:30N 33°44' W 118°17'0 0.0
2018-Feb-14 14:00N 33°44' W 118°17'0 0.0
2018-Feb-14 13:30N 33°44' W 118°17'0 0.0
2018-Feb-14 13:00N 33°44' W 118°17'0 0.0
2018-Feb-14 12:30N 33°44' W 118°17'0 0.0
2018-Feb-14 12:00N 33°44' W 118°17'0 0.0
2018-Feb-14 11:30N 33°44' W 118°17'0 0.0
2018-Feb-14 11:00N 33°44' W 118°17'0 0.0
2018-Feb-14 10:30N 33°44' W 118°17'0 0.0
2018-Feb-14 10:00N 33°44' W 118°17'0 0.0
2018-Feb-14 09:30N 33°44' W 118°17'0 0.0
2018-Feb-14 09:00N 33°44' W 118°17'0 0.0
2018-Feb-14 08:29N 33°44' W 118°17'0 0.0
2018-Feb-14 08:00N 33°44' W 118°17'0 0.0
2018-Feb-14 07:30N 33°44' W 118°17'0 0.0
2018-Feb-14 07:00N 33°44' W 118°17'0 0.0
2018-Feb-14 06:30N 33°44' W 118°17'0 0.0
2018-Feb-14 05:59N 33°44' W 118°17'0 0.0
2018-Feb-14 05:30N 33°44' W 118°17'0 0.0
2018-Feb-14 05:00N 33°44' W 118°17'0 0.0
2018-Feb-14 04:30N 33°44' W 118°17'0 0.0
2018-Feb-14 04:00N 33°44' W 118°17'0 0.0
2018-Feb-14 03:30N 33°44' W 118°17'0 0.0
2018-Feb-14 03:00N 33°44' W 118°17'0 0.0
2018-Feb-14 02:30N 33°44' W 118°17'0 0.0
2018-Feb-14 02:00N 33°44' W 118°17'0 0.0
2018-Feb-14 01:30N 33°44' W 118°17'0 0.0
2018-Feb-14 01:00N 33°44' W 118°17'0 0.0
2018-Feb-14 00:30N 33°44' W 118°17'0 0.0
2018-Feb-14 00:00N 33°44' W 118°17'0 0.0
2018-Feb-13 23:30N 33°44' W 118°17'0 0.0
2018-Feb-13 23:00N 33°44' W 118°17'0 0.0
2018-Feb-13 22:30N 33°44' W 118°17'0 0.0
2018-Feb-13 22:00N 33°44' W 118°17'1 1.4
2018-Feb-13 21:30N 33°44' W 118°17'0 0.4
2018-Feb-13 21:00N 33°45' W 118°16'1 1.8
2018-Feb-13 20:30N 33°44' W 118°16'0 0.0
2018-Feb-13 20:00N 33°44' W 118°16'0 0.0
2018-Feb-13 19:30N 33°44' W 118°16'0 0.0
2018-Feb-13 19:00N 33°44' W 118°16'0 0.0
2018-Feb-13 18:30N 33°44' W 118°16'0 0.0
2018-Feb-13 18:00N 33°44' W 118°16'0 0.0
2018-Feb-13 17:30N 33°44' W 118°16'0 0.0
2018-Feb-13 17:00N 33°44' W 118°16'0 0.0
2018-Feb-13 16:30N 33°44' W 118°16'0 0.1
2018-Feb-13 16:00N 33°44' W 118°16'0 0.0
2018-Feb-13 15:30N 33°44' W 118°16'0 0.0
2018-Feb-13 15:00N 33°44' W 118°16'0 0.0
2018-Feb-13 14:30N 33°44' W 118°16'0 0.0
2018-Feb-13 14:00N 33°44' W 118°16'0 0.0
2018-Feb-13 13:30N 33°44' W 118°16'0 0.0
2018-Feb-13 12:57N 33°44' W 118°16'0 0.0
2018-Feb-13 12:30N 33°44' W 118°16'0 0.0
2018-Feb-13 12:00N 33°44' W 118°16'0 0.0
2018-Feb-13 11:30N 33°44' W 118°16'0 0.0
2018-Feb-13 11:00N 33°44' W 118°16'0 0.0
2018-Feb-13 10:30N 33°44' W 118°16'0 0.0
2018-Feb-13 10:00N 33°44' W 118°16'0 0.0
2018-Feb-13 09:30N 33°44' W 118°16'0 0.0
2018-Feb-13 09:00N 33°44' W 118°16'0 0.0
2018-Feb-13 08:30N 33°44' W 118°16'0 0.0
2018-Feb-13 08:00N 33°44' W 118°16'0 0.0
2018-Feb-13 07:30N 33°44' W 118°16'0 0.0
2018-Feb-13 06:57N 33°44' W 118°16'0 0.0
2018-Feb-13 06:30N 33°44' W 118°16'0 0.0
2018-Feb-13 06:00N 33°44' W 118°16'0 0.1
2018-Feb-13 05:30N 33°44' W 118°16'2 3.3
2018-Feb-13 05:00N 33°43' W 118°15'37 6.3
2018-Feb-12 23:09N 33°14' W 117°47'1 5.8
2018-Feb-12 22:59N 33°13' W 117°47'3 5.7
2018-Feb-12 22:30N 33°11' W 117°45'3 5.8
2018-Feb-12 22:00N 33°08' W 117°43'3 5.8
2018-Feb-12 21:30N 33°06' W 117°41'3 6.0
2018-Feb-12 21:00N 33°04' W 117°39'3 5.9
2018-Feb-12 20:30N 33°01' W 117°36'3 5.9
2018-Feb-12 20:00N 32°59' W 117°34'3 6.1
2018-Feb-12 19:30N 32°57' W 117°32'3 6.6
2018-Feb-12 19:00N 32°54' W 117°30'3 6.6
2018-Feb-12 18:30N 32°51' W 117°27'3 6.4
2018-Feb-12 18:00N 32°49' W 117°25'3 6.3
2018-Feb-12 17:30N 32°46' W 117°23'3 6.4
2018-Feb-12 17:00N 32°44' W 117°21'5 6.7
2018-Feb-12 16:15N 32°40' W 117°17'  
Track history (hours):
 
Tides and Currents Weather Stations Pressure Air Temp Water Temp Dewpoint Dewpoint Depression Visibility Wind Speed Wind Dir Waves Ship Positions

Robyn J

Owner: JANKOVICH, TOM J, SAN PEDRO, CA. More information available from US FCC via Universal Licensing System and Coast Guard Vessel Documentation Center.

Last reported at 2018-Feb-18 14:58 UTC. Time now 2018-Feb-19 11:58 UTC.
Position N 32°42' W 117°19'.

Length 36 m; draft 3 m.

Type: Tow > 200 m length. MMSI: 367006770.

Date/timePositionNaut miles runAvg speedWind from/ knotsBaromVisibWave heightAir tempDewpointWater temp
2018-Feb-18 14:58N 32°42' W 117°19'2 5.4
2018-Feb-18 14:30N 32°44' W 117°21'3 5.5
2018-Feb-18 14:00N 32°46' W 117°23'3 5.5
2018-Feb-18 13:30N 32°48' W 117°25'3 5.4
2018-Feb-18 13:00N 32°50' W 117°27'3 5.3
2018-Feb-18 12:30N 32°52' W 117°29'3 5.4
2018-Feb-18 12:00N 32°54' W 117°31'3 5.4
2018-Feb-18 11:29N 32°56' W 117°34'3 5.5
2018-Feb-18 11:00N 32°58' W 117°36'3 5.6
2018-Feb-18 10:30N 33°00' W 117°38'3 5.7
2018-Feb-18 10:00N 33°03' W 117°40'3 5.6
2018-Feb-18 09:30N 33°05' W 117°42'3 5.6
2018-Feb-18 09:00N 33°07' W 117°43'3 5.6
2018-Feb-18 08:30N 33°09' W 117°45'3 5.7
2018-Feb-18 07:59N 33°12' W 117°47'3 5.6
2018-Feb-18 07:30N 33°14' W 117°49'9 5.6
2018-Feb-18 05:50N 33°22' W 117°56'2 5.9
2018-Feb-18 05:29N 33°23' W 117°57'3 5.8
2018-Feb-18 04:56N 33°26' W 117°60'3 5.9
2018-Feb-18 04:30N 33°28' W 118°01'3 6.1
2018-Feb-18 04:00N 33°31' W 118°03'3 5.9
2018-Feb-18 03:30N 33°33' W 118°05'4 6.0
2018-Feb-18 02:47N 33°37' W 118°08'3 5.8
2018-Feb-18 02:12N 33°40' W 118°09'1 6.0
2018-Feb-18 01:59N 33°41' W 118°10'3 5.7
2018-Feb-18 01:30N 33°44' W 118°11'1 2.4
2018-Feb-18 01:00N 33°44' W 118°12'1 1.3
2018-Feb-18 00:26N 33°45' W 118°12'0 0.0
2018-Feb-18 00:00N 33°45' W 118°12'0 0.0
2018-Feb-17 23:30N 33°45' W 118°12'0 0.0
2018-Feb-17 23:00N 33°45' W 118°12'0 0.0
2018-Feb-17 22:30N 33°45' W 118°12'0 0.0
2018-Feb-17 22:00N 33°45' W 118°12'0 0.0
2018-Feb-17 21:30N 33°45' W 118°12'1 2.8
2018-Feb-17 21:00N 33°44' W 118°12'0 0.2
2018-Feb-17 20:30N 33°44' W 118°12'0 0.9
2018-Feb-17 20:00N 33°43' W 118°11'3 6.3
2018-Feb-17 19:30N 33°41' W 118°10'4 7.1
2018-Feb-17 19:00N 33°37' W 118°08'3 6.9
2018-Feb-17 18:30N 33°34' W 118°06'4 7.0
2018-Feb-17 18:00N 33°32' W 118°03'5 6.9
2018-Feb-17 17:17N 33°27' W 117°60'3 7.0
2018-Feb-17 16:47N 33°25' W 117°57'2 7.0
2018-Feb-17 16:29N 33°23' W 117°56'10 7.0
2018-Feb-17 15:03N 33°14' W 117°50'0 7.1
2018-Feb-17 14:59N 33°14' W 117°49'3 7.0
2018-Feb-17 14:30N 33°11' W 117°47'4 7.1
2018-Feb-17 14:00N 33°08' W 117°44'4 7.2
2018-Feb-17 13:30N 33°06' W 117°42'4 7.3
2018-Feb-17 13:00N 33°03' W 117°39'4 7.5
2018-Feb-17 12:30N 33°00' W 117°36'4 7.7
2018-Feb-17 12:00N 32°57' W 117°33'4 7.8
2018-Feb-17 11:30N 32°54' W 117°30'4 7.6
2018-Feb-17 11:00N 32°51' W 117°27'4 7.4
2018-Feb-17 10:30N 32°48' W 117°25'4 7.3
2018-Feb-17 09:58N 32°45' W 117°22'3 0.3
2018-Feb-16 22:36N 32°42' W 117°20'0 5.6
2018-Feb-16 22:30N 32°43' W 117°20'3 5.3
2018-Feb-16 22:00N 32°45' W 117°22'3 5.3
2018-Feb-16 21:30N 32°47' W 117°24'3 5.2
2018-Feb-16 21:00N 32°49' W 117°26'3 5.1
2018-Feb-16 20:30N 32°51' W 117°28'2 4.5
2018-Feb-16 20:00N 32°53' W 117°29'3 5.3
2018-Feb-16 19:30N 32°55' W 117°31'3 5.2
2018-Feb-16 19:00N 32°57' W 117°33'3 5.1
2018-Feb-16 18:30N 32°59' W 117°35'3 5.1
2018-Feb-16 18:00N 33°01' W 117°36'2 4.9
2018-Feb-16 17:30N 33°03' W 117°38'2 4.9
2018-Feb-16 17:00N 33°05' W 117°39'3 5.2
2018-Feb-16 16:30N 33°07' W 117°41'3 5.4
2018-Feb-16 16:00N 33°10' W 117°43'3 5.4
2018-Feb-16 15:30N 33°12' W 117°45'38 5.7
2018-Feb-16 08:46N 33°42' W 118°14'1 5.4
2018-Feb-16 08:30N 33°43' W 118°15'2 3.2
2018-Feb-16 08:00N 33°44' W 118°16'2 4.7
2018-Feb-16 07:30N 33°46' W 118°16'0 0.3
2018-Feb-16 07:00N 33°46' W 118°16'0 0.0
2018-Feb-16 06:30N 33°46' W 118°16'1 2.2
2018-Feb-16 06:00N 33°45' W 118°16'3 5.2
2018-Feb-16 05:28N 33°43' W 118°14'3 7.0
2018-Feb-16 05:00N 33°44' W 118°10'1 1.9
2018-Feb-16 04:27N 33°44' W 118°11'3 6.2
2018-Feb-16 04:00N 33°43' W 118°14'1 2.7
2018-Feb-16 03:28N 33°43' W 118°16'3 7.1
2018-Feb-16 03:00N 33°44' W 118°12'0 0.7
2018-Feb-16 02:30N 33°45' W 118°13'0 0.0
2018-Feb-16 01:48N 33°45' W 118°13'0 0.0
2018-Feb-16 01:30N 33°45' W 118°13'0 0.0
2018-Feb-16 01:00N 33°45' W 118°13'0 0.0
2018-Feb-16 00:30N 33°45' W 118°13'0 0.0
2018-Feb-16 00:00N 33°45' W 118°13'0 0.0
2018-Feb-15 23:30N 33°45' W 118°13'2 3.8
2018-Feb-15 23:00N 33°43' W 118°14'2 4.4
2018-Feb-15 22:30N 33°44' W 118°17'0 0.0
2018-Feb-15 22:00N 33°44' W 118°17'0 0.9
2018-Feb-15 21:30N 33°44' W 118°17'2 3.8
2018-Feb-15 21:00N 33°46' W 118°16'2 3.4
2018-Feb-15 20:30N 33°44' W 118°17'1 1.4
2018-Feb-15 20:00N 33°44' W 118°16'0 0.0
2018-Feb-15 19:30N 33°44' W 118°16'0 0.0
2018-Feb-15 19:00N 33°44' W 118°16'0 0.1
2018-Feb-15 18:30N 33°44' W 118°17'0 0.0
2018-Feb-15 18:00N 33°44' W 118°17'0 0.0
2018-Feb-15 17:30N 33°44' W 118°17'0 0.0
2018-Feb-15 17:00N 33°44' W 118°17'0 0.0
2018-Feb-15 16:30N 33°44' W 118°17'0 0.0
2018-Feb-15 16:00N 33°44' W 118°17'0 0.0
2018-Feb-15 15:30N 33°44' W 118°17'0 0.0
2018-Feb-15 15:00N 33°44' W 118°17'0 0.0
2018-Feb-15 14:30N 33°44' W 118°17'0 0.0
2018-Feb-15 14:00N 33°44' W 118°17'0 0.0
2018-Feb-15 13:30N 33°44' W 118°17'0 0.0
2018-Feb-15 13:00N 33°44' W 118°17'0 0.0
2018-Feb-15 12:30N 33°44' W 118°17'0 0.0
2018-Feb-15 12:00N 33°44' W 118°17'0 0.0
2018-Feb-15 11:30N 33°44' W 118°17'0 0.0
2018-Feb-15 11:00N 33°44' W 118°17'0 0.0
2018-Feb-15 10:30N 33°44' W 118°17'0 0.0
2018-Feb-15 10:00N 33°44' W 118°17'0 0.0
2018-Feb-15 09:30N 33°44' W 118°17'0 0.0
2018-Feb-15 09:00N 33°44' W 118°17'0 0.0
2018-Feb-15 08:30N 33°44' W 118°17'0 0.0
2018-Feb-15 08:00N 33°44' W 118°17'0 0.0
2018-Feb-15 07:30N 33°44' W 118°17'0 0.0
2018-Feb-15 07:00N 33°44' W 118°17'0 0.0
2018-Feb-15 06:30N 33°44' W 118°17'0 0.0
2018-Feb-15 06:00N 33°44' W 118°17'0 0.0
2018-Feb-15 05:30N 33°44' W 118°17'0 0.0
2018-Feb-15 05:00N 33°44' W 118°17'0 0.0
2018-Feb-15 04:30N 33°44' W 118°17'0 0.0
2018-Feb-15 04:00N 33°44' W 118°17'0 0.0
2018-Feb-15 03:30N 33°44' W 118°17'0 0.0
2018-Feb-15 03:00N 33°44' W 118°17'0 0.0
2018-Feb-15 02:30N 33°44' W 118°17'0 0.0
2018-Feb-15 02:00N 33°44' W 118°17'0 0.0
2018-Feb-15 01:30N 33°44' W 118°17'0 0.0
2018-Feb-15 01:00N 33°44' W 118°17'0 0.0
2018-Feb-15 00:30N 33°44' W 118°17'0 0.0
2018-Feb-15 00:00N 33°44' W 118°17'0 0.0
2018-Feb-14 23:30N 33°44' W 118°17'0 0.0
2018-Feb-14 23:00N 33°44' W 118°17'0 0.0
2018-Feb-14 22:30N 33°44' W 118°17'0 0.0
2018-Feb-14 22:00N 33°44' W 118°17'0 0.0
2018-Feb-14 21:30N 33°44' W 118°17'0 0.0
2018-Feb-14 21:00N 33°44' W 118°17'0 0.1
2018-Feb-14 20:30N 33°44' W 118°17'2 3.5
2018-Feb-14 20:00N 33°45' W 118°17'0 0.7
2018-Feb-14 19:30N 33°46' W 118°16'0 0.0
2018-Feb-14 19:00N 33°46' W 118°16'0 0.0
2018-Feb-14 18:30N 33°46' W 118°16'0 0.0
2018-Feb-14 18:00N 33°46' W 118°16'0 0.0
2018-Feb-14 17:30N 33°46' W 118°16'0 0.0
2018-Feb-14 17:00N 33°46' W 118°16'0 0.0
2018-Feb-14 16:30N 33°46' W 118°16'0 0.0
2018-Feb-14 16:00N 33°46' W 118°16'2 4.0
2018-Feb-14 15:30N 33°44' W 118°16'0 0.1
2018-Feb-14 15:00N 33°44' W 118°17'0 0.0
2018-Feb-14 14:30N 33°44' W 118°17'0 0.0
2018-Feb-14 14:00N 33°44' W 118°17'0 0.0
2018-Feb-14 13:30N 33°44' W 118°17'0 0.0
2018-Feb-14 13:00N 33°44' W 118°17'0 0.0
2018-Feb-14 12:30N 33°44' W 118°17'0 0.0
2018-Feb-14 12:00N 33°44' W 118°17'0 0.0
2018-Feb-14 11:30N 33°44' W 118°17'0 0.0
2018-Feb-14 11:00N 33°44' W 118°17'0 0.0
2018-Feb-14 10:30N 33°44' W 118°17'0 0.0
2018-Feb-14 10:00N 33°44' W 118°17'0 0.0
2018-Feb-14 09:30N 33°44' W 118°17'0 0.0
2018-Feb-14 09:00N 33°44' W 118°17'0 0.0
2018-Feb-14 08:29N 33°44' W 118°17'0 0.0
2018-Feb-14 08:00N 33°44' W 118°17'0 0.0
2018-Feb-14 07:30N 33°44' W 118°17'0 0.0
2018-Feb-14 07:00N 33°44' W 118°17'0 0.0
2018-Feb-14 06:30N 33°44' W 118°17'0 0.0
2018-Feb-14 05:59N 33°44' W 118°17'0 0.0
2018-Feb-14 05:30N 33°44' W 118°17'0 0.0
2018-Feb-14 05:00N 33°44' W 118°17'0 0.0
2018-Feb-14 04:30N 33°44' W 118°17'0 0.0
2018-Feb-14 04:00N 33°44' W 118°17'0 0.0
2018-Feb-14 03:30N 33°44' W 118°17'0 0.0
2018-Feb-14 03:00N 33°44' W 118°17'0 0.0
2018-Feb-14 02:30N 33°44' W 118°17'0 0.0
2018-Feb-14 02:00N 33°44' W 118°17'0 0.0
2018-Feb-14 01:30N 33°44' W 118°17'0 0.0
2018-Feb-14 01:00N 33°44' W 118°17'0 0.0
2018-Feb-14 00:30N 33°44' W 118°17'0 0.0
2018-Feb-14 00:00N 33°44' W 118°17'0 0.0
2018-Feb-13 23:30N 33°44' W 118°17'0 0.0
2018-Feb-13 23:00N 33°44' W 118°17'0 0.0
2018-Feb-13 22:30N 33°44' W 118°17'0 0.0
2018-Feb-13 22:00N 33°44' W 118°17'1 1.4
2018-Feb-13 21:30N 33°44' W 118°17'0 0.4
2018-Feb-13 21:00N 33°45' W 118°16'1 1.8
2018-Feb-13 20:30N 33°44' W 118°16'0 0.0
2018-Feb-13 20:00N 33°44' W 118°16'0 0.0
2018-Feb-13 19:30N 33°44' W 118°16'0 0.0
2018-Feb-13 19:00N 33°44' W 118°16'0 0.0
2018-Feb-13 18:30N 33°44' W 118°16'0 0.0
2018-Feb-13 18:00N 33°44' W 118°16'0 0.0
2018-Feb-13 17:30N 33°44' W 118°16'0 0.0
2018-Feb-13 17:00N 33°44' W 118°16'0 0.0
2018-Feb-13 16:30N 33°44' W 118°16'0 0.1
2018-Feb-13 16:00N 33°44' W 118°16'0 0.0
2018-Feb-13 15:30N 33°44' W 118°16'0 0.0
2018-Feb-13 15:00N 33°44' W 118°16'0 0.0
2018-Feb-13 14:30N 33°44' W 118°16'0 0.0
2018-Feb-13 14:00N 33°44' W 118°16'0 0.0
2018-Feb-13 13:30N 33°44' W 118°16'0 0.0
2018-Feb-13 12:57N 33°44' W 118°16'0 0.0
2018-Feb-13 12:30N 33°44' W 118°16'0 0.0
2018-Feb-13 12:00N 33°44' W 118°16'0 0.0
2018-Feb-13 11:30N 33°44' W 118°16'0 0.0
2018-Feb-13 11:00N 33°44' W 118°16'0 0.0
2018-Feb-13 10:30N 33°44' W 118°16'0 0.0
2018-Feb-13 10:00N 33°44' W 118°16'0 0.0
2018-Feb-13 09:30N 33°44' W 118°16'0 0.0
2018-Feb-13 09:00N 33°44' W 118°16'0 0.0
2018-Feb-13 08:30N 33°44' W 118°16'0 0.0
2018-Feb-13 08:00N 33°44' W 118°16'0 0.0
2018-Feb-13 07:30N 33°44' W 118°16'0 0.0
2018-Feb-13 06:57N 33°44' W 118°16'0 0.0
2018-Feb-13 06:30N 33°44' W 118°16'0 0.0
2018-Feb-13 06:00N 33°44' W 118°16'0 0.1
2018-Feb-13 05:30N 33°44' W 118°16'2 3.3
2018-Feb-13 05:00N 33°43' W 118°15'37 6.3
2018-Feb-12 23:09N 33°14' W 117°47'1 5.8
2018-Feb-12 22:59N 33°13' W 117°47'3 5.7
2018-Feb-12 22:30N 33°11' W 117°45'3 5.8
2018-Feb-12 22:00N 33°08' W 117°43'3 5.8
2018-Feb-12 21:30N 33°06' W 117°41'3 6.0
2018-Feb-12 21:00N 33°04' W 117°39'3 5.9
2018-Feb-12 20:30N 33°01' W 117°36'3 5.9
2018-Feb-12 20:00N 32°59' W 117°34'3 6.1
2018-Feb-12 19:30N 32°57' W 117°32'3 6.6
2018-Feb-12 19:00N 32°54' W 117°30'3 6.6
2018-Feb-12 18:30N 32°51' W 117°27'3 6.4
2018-Feb-12 18:00N 32°49' W 117°25'3 6.3
2018-Feb-12 17:30N 32°46' W 117°23'3 6.4
2018-Feb-12 17:00N 32°44' W 117°21'5 6.7
2018-Feb-12 16:15N 32°40' W 117°17'  

Dump ship's entire track history